Time;durP1;ratioP1;P1;durP2;ratioP2;P2;SDS_P1;SDS_P2;PMS_P1;PMS_P2;Temp;Humidity;BMP_temperature;BMP_pressure;BME280_temperature;BME280_humidity;BME280_pressure;Samples;Min_cycle;Max_cycle;Signal;HPM_P1;HPM_P2
2023/10/15 00:01:31;;;;;;;5.90;2.07;;;;;;;8.65;100.00;98741.47;4918997;29;20044;-66
2023/10/15 00:03:57;;;;;;;5.40;2.47;;;;;;;8.73;100.00;98753.75;4918376;29;20135;-65
2023/10/15 00:06:23;;;;;;;8.60;2.47;;;;;;;8.74;100.00;98751.91;4918501;29;20044;-64
2023/10/15 00:08:50;;;;;;;9.63;3.27;;;;;;;8.65;100.00;98722.88;4918528;29;20510;-64
2023/10/15 00:11:21;;;;;;;6.40;1.93;;;;;;;7.91;100.00;98622.03;4920452;29;20067;-64
2023/10/15 00:13:49;;;;;;;7.03;2.17;;;;;;;8.86;100.00;98742.34;4921372;29;20085;-65
2023/10/15 00:16:19;;;;;;;;;;;;;;;8.97;100.00;98760.38;4922138;29;20206;-66
2023/10/15 00:18:44;;;;;;;8.30;2.13;;;;;;;8.95;100.00;98751.75;4921701;29;20343;-63
2023/10/15 00:21:13;;;;;;;7.30;2.27;;;;;;;8.96;100.00;98751.59;4922174;29;20039;-64
2023/10/15 00:23:43;;;;;;;;;;;;;;;8.98;100.00;98759.34;4916590;29;20492;-63
2023/10/15 00:26:12;;;;;;;7.90;2.23;;;;;;;8.73;100.00;98715.78;4922360;29;20009;-64
2023/10/15 00:28:41;;;;;;;9.20;2.10;;;;;;;8.81;100.00;98739.47;4922318;29;20035;-64
2023/10/15 00:31:11;;;;;;;5.70;1.90;;;;;;;8.82;100.00;98752.56;4920789;29;20047;-65
2023/10/15 00:33:42;;;;;;;7.80;2.47;;;;;;;8.86;100.00;98747.66;4919498;29;20125;-65
2023/10/15 00:36:18;;;;;;;4.43;2.17;;;;;;;8.78;100.00;98727.44;4918662;29;20032;-64
2023/10/15 00:38:45;;;;;;;8.63;2.40;;;;;;;8.76;100.00;98734.78;4916618;29;20035;-66
2023/10/15 00:41:14;;;;;;;11.10;2.40;;;;;;;8.79;100.00;98734.38;4916288;29;20074;-63
2023/10/15 00:43:59;;;;;;;8.53;2.50;;;;;;;8.73;100.00;98727.22;4918015;29;20519;-65
2023/10/15 00:46:30;;;;;;;8.13;2.57;;;;;;;8.85;100.00;98741.53;4918047;29;20046;-63
2023/10/15 00:48:56;;;;;;;6.83;2.10;;;;;;;8.71;100.00;98731.91;4917911;29;20079;-65
2023/10/15 00:51:23;;;;;;;9.53;2.83;;;;;;;8.53;100.00;98705.09;4916287;29;20068;-64
2023/10/15 00:53:54;;;;;;;11.60;2.50;;;;;;;8.73;100.00;98737.84;4917401;29;20047;-65
2023/10/15 00:56:25;;;;;;;6.80;2.20;;;;;;;8.58;100.00;98737.97;4917941;29;20102;-65
2023/10/15 01:03:53;;;;;;;9.03;3.70;;;;;;;8.60;100.00;98749.22;4918068;29;20514;-63
2023/10/15 01:06:32;;;;;;;8.53;2.20;;;;;;;8.67;100.00;98741.25;4919047;29;20032;-63
2023/10/15 01:08:59;;;;;;;8.73;2.67;;;;;;;8.69;100.00;98749.88;4917870;29;20044;-63
2023/10/15 01:11:28;;;;;;;8.13;2.80;;;;;;;8.69;100.00;98745.38;4917561;29;20044;-65
2023/10/15 01:13:55;;;;;;;8.27;3.10;;;;;;;8.57;100.00;98716.94;4916997;29;20087;-64
2023/10/15 01:16:22;;;;;;;10.33;2.93;;;;;;;8.65;100.00;98740.66;4917328;29;20052;-63
2023/10/15 01:18:59;;;;;;;9.40;2.50;;;;;;;8.70;100.00;98738.25;4917018;29;20527;-64
2023/10/15 01:21:38;;;;;;;8.83;2.23;;;;;;;8.70;100.00;98738.25;4917254;29;20048;-69
2023/10/15 01:24:07;;;;;;;;;;;;;;;8.80;100.00;98737.84;4916042;29;20500;-65
2023/10/15 01:26:36;;;;;;;8.70;3.27;;;;;;;8.77;100.00;98736.41;4916894;29;19927;-63
2023/10/15 01:29:01;;;;;;;7.70;2.30;;;;;;;8.50;100.00;98686.94;4917102;29;20465;-64
2023/10/15 01:31:27;;;;;;;7.23;2.33;;;;;;;8.81;100.00;98734.19;4915691;29;20040;-65
2023/10/15 01:33:53;;;;;;;6.97;2.20;;;;;;;8.81;100.00;98735.00;4917016;29;20076;-65
2023/10/15 01:36:28;;;;;;;5.53;2.60;;;;;;;8.74;100.00;98722.72;4931996;29;20546;-64
2023/10/15 01:38:56;;;;;;;8.27;2.60;;;;;;;8.78;100.00;98739.88;4918370;29;20063;-64
2023/10/15 01:41:25;;;;;;;5.82;2.35;;;;;;;8.77;100.00;98727.63;4916698;29;20055;-65
2023/10/15 01:43:57;;;;;;;9.50;2.28;;;;;;;8.76;100.00;98734.78;4916633;29;20139;-65
2023/10/15 01:49:09;;;;;;;6.90;2.40;;;;;;;8.75;100.00;98727.84;4916906;29;20036;-63
2023/10/15 01:51:40;;;;;;;9.57;3.22;;;;;;;8.60;100.00;98705.94;4916604;29;20535;-64
2023/10/15 01:54:09;;;;;;;8.93;2.60;;;;;;;8.75;100.00;98725.19;4916392;29;20393;-64
2023/10/15 01:56:44;;;;;;;7.10;2.10;;;;;;;8.67;100.00;98718.22;4916792;29;20544;-64
2023/10/15 01:59:11;;;;;;;8.00;2.40;;;;;;;8.72;100.00;98725.59;4916531;29;20044;-66
2023/10/15 02:01:49;;;;;;;3.37;2.30;;;;;;;8.84;100.00;98728.47;4916434;29;20090;-63
2023/10/15 02:04:27;;;;;;;4.18;2.40;;;;;;;8.86;100.00;98726.41;4916254;29;20562;-65
2023/10/15 02:06:53;;;;;;;6.45;2.38;;;;;;;8.88;100.00;98727.84;4914916;29;20036;-64
2023/10/15 02:09:22;;;;;;;7.53;2.70;;;;;;;8.54;100.00;98670.41;4916321;29;20091;-64
2023/10/15 02:11:51;;;;;;;7.43;2.50;;;;;;;8.80;100.00;98701.50;4916512;29;20470;-65
2023/10/15 02:14:30;;;;;;;8.32;2.53;;;;;;;8.88;100.00;98719.88;4917092;29;20071;-67
2023/10/15 02:16:59;;;;;;;8.03;3.30;;;;;;;8.89;100.00;98715.41;4916885;29;20393;-64
2023/10/15 02:22:21;;;;;;;9.87;2.47;;;;;;;8.82;100.00;98707.44;4917450;29;20087;-65
2023/10/15 02:24:47;;;;;;;10.80;2.88;;;;;;;8.91;100.00;98721.31;4916207;29;20032;-64
2023/10/15 02:27:25;;;;;;;6.27;2.33;;;;;;;8.82;100.00;98710.09;4916126;29;20084;-64
2023/10/15 02:29:52;;;;;;;8.43;2.80;;;;;;;8.79;100.00;98713.13;4900358;29;20074;-64
2023/10/15 02:32:28;;;;;;;6.73;2.50;;;;;;;8.78;100.00;98711.50;4916210;29;20048;-67
2023/10/15 02:34:57;;;;;;;5.67;2.33;;;;;;;8.79;100.00;98715.78;4916244;29;20040;-65
2023/10/15 02:37:28;;;;;;;6.90;2.50;;;;;;;8.73;100.00;98699.88;4914679;29;20046;-64
2023/10/15 02:39:56;;;;;;;8.03;2.67;;;;;;;8.85;100.00;98717.63;4919053;29;20082;-65
2023/10/15 02:42:31;;;;;;;9.33;3.23;;;;;;;8.84;100.00;98713.34;4915717;29;20064;-64
2023/10/15 02:45:00;;;;;;;7.93;2.57;;;;;;;8.90;100.00;98706.41;4915955;29;20040;-65
2023/10/15 02:47:41;;;;;;;7.57;2.10;;;;;;;8.68;100.00;98676.59;4929518;29;20044;-64
2023/10/15 02:50:18;;;;;;;12.87;2.93;;;;;;;8.82;100.00;98718.03;4930169;29;20060;-64
2023/10/15 02:52:45;;;;;;;14.00;2.43;;;;;;;8.76;100.00;98707.41;4915651;29;20047;-64
2023/10/15 02:55:12;;;;;;;8.97;2.53;;;;;;;8.76;100.00;98721.50;4915767;29;20055;-66
2023/10/15 02:57:38;;;;;;;8.20;2.10;;;;;;;8.58;100.00;98689.41;4916156;29;20071;-63
2023/10/15 03:00:13;;;;;;;6.90;2.00;;;;;;;8.68;100.00;98706.59;4917450;29;20062;-66
2023/10/15 03:02:43;;;;;;;6.40;2.43;;;;;;;8.68;100.00;98711.09;4916423;29;20080;-65
2023/10/15 03:05:13;;;;;;;5.57;2.33;;;;;;;8.56;100.00;98700.22;4916012;29;20036;-64
2023/10/15 03:07:43;;;;;;;13.70;3.37;;;;;;;8.58;100.00;98707.97;4917954;29;20047;-63
2023/10/15 03:10:13;;;;;;;7.00;2.43;;;;;;;8.49;100.00;98704.69;4916956;29;20083;-64
2023/10/15 03:12:48;;;;;;;5.67;2.30;;;;;;;8.51;100.00;98702.66;4916233;29;20032;-64
2023/10/15 03:15:15;;;;;;;4.57;2.10;;;;;;;8.48;100.00;98691.63;4917258;29;20119;-64
2023/10/15 03:17:41;;;;;;;10.17;2.47;;;;;;;8.54;100.00;98702.25;4917245;29;20112;-65
2023/10/15 03:20:39;;;;;;;7.27;2.60;;;;;;;8.55;100.00;98708.38;4917604;29;20036;-63
2023/10/15 03:23:00;;;;;;;8.93;2.83;;;;;;;8.55;100.00;98703.88;4916146;29;20506;-65
2023/10/15 03:25:33;;;;;;;13.48;2.08;;;;;;;8.32;100.00;98677.66;4915678;29;20177;-65
2023/10/15 03:28:00;;;;;;;10.30;3.20;;;;;;;8.47;100.00;98687.34;4930042;29;20032;-65
2023/10/15 03:30:26;;;;;;;6.20;2.43;;;;;;;8.19;100.00;98645.81;4930520;29;20577;-64
2023/10/15 03:32:52;;;;;;;6.80;2.70;;;;;;;8.54;100.00;98693.47;4915758;29;20119;-65
2023/10/15 03:35:45;;;;;;;10.53;2.63;;;;;;;8.43;100.00;98678.16;4916079;29;20065;-64
2023/10/15 03:38:08;;;;;;;8.53;2.77;;;;;;;8.36;100.00;98668.31;4914980;29;20492;-63
2023/10/15 03:40:44;;;;;;;;;;;;;;;8.52;100.00;98693.69;4917052;29;20047;-64
2023/10/15 03:43:15;;;;;;;9.70;2.50;;;;;;;8.33;100.00;98689.94;4916144;29;19926;-64
2023/10/15 03:45:51;;;;;;;21.43;3.63;;;;;;;8.28;100.00;98700.28;4915231;29;20048;-64
2023/10/15 03:48:21;;;;;;;6.47;2.30;;;;;;;8.24;100.00;98707.00;4915471;29;20047;-64
2023/10/15 03:50:54;;;;;;;5.20;2.57;;;;;;;8.25;100.00;98698.03;4915124;29;20492;-65
2023/10/15 03:53:21;;;;;;;11.13;2.67;;;;;;;8.35;100.00;98701.16;4914460;29;20048;-64
2023/10/15 03:55:50;;;;;;;5.73;2.73;;;;;;;8.28;100.00;98668.47;4915506;29;20040;-64
2023/10/15 03:58:18;;;;;;;8.70;2.33;;;;;;;8.09;100.00;98637.38;4916795;29;20138;-64
2023/10/15 04:00:47;;;;;;;9.80;2.30;;;;;;;8.34;100.00;98666.88;4920498;29;20051;-64
2023/10/15 04:03:25;;;;;;;7.57;2.03;;;;;;;8.51;100.00;98699.19;4919584;29;20076;-65
2023/10/15 04:05:52;;;;;;;7.55;2.50;;;;;;;8.29;100.00;98656.84;4919831;29;20040;-67
2023/10/15 04:08:19;;;;;;;10.23;2.70;;;;;;;8.49;100.00;98693.25;4919197;29;20040;-64
2023/10/15 04:10:55;;;;;;;8.07;2.50;;;;;;;8.45;100.00;98684.06;4918534;29;20039;-66
2023/10/15 04:13:21;;;;;;;6.90;2.60;;;;;;;8.17;100.00;98634.56;4917231;29;20547;-65
2023/10/15 04:15:47;;;;;;;9.40;3.20;;;;;;;8.39;100.00;98675.09;4918634;29;20073;-63
2023/10/15 04:18:13;;;;;;;7.30;3.57;;;;;;;8.34;100.00;98665.03;4933255;29;20106;-64
2023/10/15 04:20:42;;;;;;;5.50;2.40;;;;;;;8.49;100.00;98682.66;4918304;29;20563;-65
2023/10/15 04:23:20;;;;;;;8.53;2.30;;;;;;;8.43;100.00;98676.31;4918743;29;20048;-64
2023/10/15 04:25:47;;;;;;;;;;;;;;;8.52;100.00;98692.84;4919513;29;20036;-65
2023/10/15 04:28:18;;;;;;;4.63;1.93;;;;;;;8.46;100.00;98693.66;4919220;29;20402;-65
2023/10/15 04:30:46;;;;;;;7.97;2.20;;;;;;;8.22;100.00;98644.59;4919214;29;20040;-64
2023/10/15 04:33:14;;;;;;;6.00;2.00;;;;;;;8.42;100.00;98676.50;4916846;29;20040;-64
2023/10/15 04:35:43;;;;;;;7.22;2.88;;;;;;;8.48;100.00;98675.72;4918482;29;20064;-64
2023/10/15 04:38:09;;;;;;;7.38;2.75;;;;;;;8.17;100.00;98647.84;4941085;29;20127;-65
2023/10/15 04:43:25;;;;;;;7.60;2.10;;;;;;;8.41;100.00;98674.88;4926475;29;20040;-65
2023/10/15 04:45:55;;;;;;;8.87;2.43;;;;;;;8.42;100.00;98681.81;4924264;29;20040;-64
2023/10/15 04:48:30;;;;;;;10.80;3.43;;;;;;;8.47;100.00;98687.34;4919510;29;20036;-65
2023/10/15 04:51:11;;;;;;;8.60;2.30;;;;;;;8.36;100.00;98670.97;4917566;29;20064;-63
2023/10/15 04:53:36;;;;;;;7.43;2.43;;;;;;;8.47;100.00;98676.72;4932364;29;20043;-64
2023/10/15 04:56:04;;;;;;;11.63;2.40;;;;;;;8.35;100.00;98660.56;4917885;29;20051;-64
2023/10/15 04:58:30;;;;;;;12.27;3.13;;;;;;;8.25;100.00;98652.13;4918135;29;20091;-64
2023/10/15 05:00:58;;;;;;;8.37;2.70;;;;;;;8.22;100.00;98663.16;4917565;29;20040;-64
2023/10/15 05:03:25;;;;;;;;;;;;;;;8.36;100.00;98673.63;4916637;29;20087;-64
2023/10/15 05:05:51;;;;;;;7.37;2.70;;;;;;;8.25;100.00;98660.91;4917457;29;19925;-65
2023/10/15 05:08:24;;;;;;;8.70;2.70;;;;;;;8.17;100.00;98647.84;4932445;29;20115;-65
2023/10/15 05:10:50;;;;;;;8.60;3.50;;;;;;;8.16;100.00;98645.38;4916849;29;20035;-65
2023/10/15 05:13:17;;;;;;;8.00;2.33;;;;;;;8.22;100.00;98647.25;4917526;29;20480;-65
2023/10/15 05:15:49;;;;;;;11.90;2.87;;;;;;;7.94;100.00;98610.22;4917182;29;20057;-64
2023/10/15 05:18:18;;;;;;;8.93;2.90;;;;;;;8.07;100.00;98650.03;4917335;29;20488;-66
2023/10/15 05:20:47;;;;;;;9.37;2.30;;;;;;;8.33;100.00;98689.09;4919950;29;20082;-67
2023/10/15 05:23:13;;;;;;;6.32;2.20;;;;;;;8.34;100.00;98670.34;4917986;29;20415;-68
2023/10/15 05:25:39;;;;;;;12.40;3.60;;;;;;;8.32;100.00;98667.03;4917527;29;20040;-64
2023/10/15 05:28:06;;;;;;;6.87;2.53;;;;;;;8.24;100.00;98658.47;4919411;29;20036;-69
2023/10/15 05:30:32;;;;;;;4.23;2.03;;;;;;;8.45;100.00;98697.34;4918974;29;20040;-66
2023/10/15 05:33:01;;;;;;;9.03;3.23;;;;;;;8.42;100.00;98684.47;4916741;29;20495;-67
2023/10/15 05:35:28;;;;;;;8.07;2.20;;;;;;;8.19;100.00;98667.00;4916793;29;20028;-67
2023/10/15 05:37:56;;;;;;;10.77;2.57;;;;;;;8.24;100.00;98683.13;4931580;29;20080;-65
2023/10/15 05:40:22;;;;;;;6.18;2.30;;;;;;;8.08;100.00;98649.81;4931625;29;20422;-67
2023/10/15 05:42:48;;;;;;;5.07;1.90;;;;;;;8.22;100.00;98677.22;4917052;29;20040;-66
2023/10/15 05:45:14;;;;;;;8.37;2.80;;;;;;;8.22;100.00;98676.41;4917916;29;20075;-66
2023/10/15 05:47:44;;;;;;;6.20;2.93;;;;;;;8.26;100.00;98677.63;4916702;29;20554;-68
2023/10/15 05:50:12;;;;;;;7.83;2.87;;;;;;;8.16;100.00;98659.47;4916744;29;20508;-65
2023/10/15 05:52:39;;;;;;;11.27;2.65;;;;;;;8.17;100.00;98660.28;4930896;29;20127;-66
2023/10/15 05:55:06;;;;;;;5.90;2.63;;;;;;;8.18;100.00;98649.47;4916595;29;20044;-66
2023/10/15 05:57:33;;;;;;;10.03;2.17;;;;;;;8.33;100.00;98681.97;4916680;29;20096;-64
2023/10/15 06:00:17;;;;;;;6.13;1.80;;;;;;;8.29;100.00;98671.94;4916349;29;20047;-64
2023/10/15 06:02:52;;;;;;;8.17;3.00;;;;;;;8.22;100.00;98656.00;4916745;29;20147;-68
2023/10/15 06:05:18;;;;;;;6.27;2.70;;;;;;;8.49;100.00;98682.66;4916985;29;20074;-67
2023/10/15 06:07:44;;;;;;;7.33;2.63;;;;;;;8.45;100.00;98673.47;4917790;29;20408;-70
2023/10/15 06:10:14;;;;;;;9.00;2.77;;;;;;;8.50;100.00;98678.97;4916580;29;20098;-65
2023/10/15 06:12:40;;;;;;;8.03;2.03;;;;;;;8.48;100.00;98671.22;4916484;29;20055;-71
2023/10/15 06:15:06;;;;;;;9.23;2.10;;;;;;;8.38;100.00;98665.47;4916356;29;20165;-66
2023/10/15 06:17:33;;;;;;;6.10;2.60;;;;;;;8.29;100.00;98662.16;4915678;29;20040;-67
2023/10/15 06:19:59;;;;;;;6.73;3.07;;;;;;;8.28;100.00;98659.69;4915376;29;20433;-67
2023/10/15 06:22:25;;;;;;;9.27;2.20;;;;;;;8.44;100.00;98690.41;4916495;29;20048;-67
2023/10/15 06:24:52;;;;;;;9.50;4.37;;;;;;;8.48;100.00;98696.94;4916101;29;20040;-68
2023/10/15 06:27:18;;;;;;;10.97;2.67;;;;;;;8.47;100.00;98687.34;4915952;29;20039;-68
2023/10/15 06:29:44;;;;;;;7.10;2.37;;;;;;;8.50;100.00;98689.59;4916427;29;20043;-66
2023/10/15 06:32:10;;;;;;;7.57;2.03;;;;;;;8.26;100.00;98662.53;4916287;29;20036;-68
2023/10/15 06:34:39;;;;;;;5.10;1.97;;;;;;;8.52;100.00;98691.03;4916111;29;20039;-67
2023/10/15 06:37:08;;;;;;;;;;;;;;;8.55;100.00;98703.06;4916428;29;20555;-68
2023/10/15 06:39:33;;;;;;;;;;;;;;;8.58;100.00;98710.63;4915123;29;19961;-69
2023/10/15 06:42:00;;;;;;;10.60;2.23;;;;;;;8.41;100.00;98698.75;4914854;29;19962;-68
2023/10/15 06:44:25;;;;;;;9.93;2.20;;;;;;;8.40;100.00;98678.56;4915911;29;20399;-67
2023/10/15 06:46:51;;;;;;;6.17;3.03;;;;;;;8.56;100.00;98683.47;4916125;29;20042;-68
2023/10/15 06:49:18;;;;;;;6.20;2.00;;;;;;;8.56;100.00;98680.81;4915912;29;20068;-69
2023/10/15 06:51:44;;;;;;;5.57;2.07;;;;;;;8.76;100.00;98699.47;4930625;29;20056;-68
2023/10/15 06:54:11;;;;;;;9.23;2.37;;;;;;;8.75;100.00;98695.16;4915661;29;20055;-68
2023/10/15 06:56:38;;;;;;;9.10;2.23;;;;;;;8.65;100.00;98682.25;4915890;29;20452;-68
2023/10/15 06:59:04;;;;;;;8.80;2.50;;;;;;;8.56;100.00;98651.66;4930157;29;20396;-65
2023/10/15 07:01:30;;;;;;;4.13;1.90;;;;;;;7.98;100.00;98572.50;4915824;29;20055;-66
2023/10/15 07:03:56;;;;;;;5.37;1.80;;;;;;;8.69;100.00;98700.28;4915765;29;20062;-66
2023/10/15 07:06:23;;;;;;;5.50;2.40;;;;;;;8.62;100.00;98694.09;4898601;29;20437;-67
2023/10/15 07:08:50;;;;;;;8.73;2.53;;;;;;;8.69;100.00;98692.31;4914331;29;20071;-68
2023/10/15 07:11:30;;;;;;;6.10;2.10;;;;;;;8.87;100.00;98702.31;4916329;29;20059;-68
2023/10/15 07:13:55;;;;;;;9.67;2.47;;;;;;;8.99;100.00;98694.59;4931077;29;20103;-69
2023/10/15 07:16:22;;;;;;;6.50;2.17;;;;;;;9.14;100.00;98697.06;4916333;29;20036;-66
2023/10/15 07:18:48;;;;;;;5.70;2.23;;;;;;;9.24;100.00;98697.44;4915710;29;20131;-66
2023/10/15 07:21:18;;;;;;;5.50;2.33;;;;;;;9.17;99.37;98680.72;4900670;29;20050;-66
2023/10/15 07:23:45;;;;;;;4.67;2.23;;;;;;;9.34;98.19;98691.75;4918092;29;20047;-69
2023/10/15 07:26:11;;;;;;;4.97;2.23;;;;;;;9.44;98.34;98703.59;4917888;29;20076;-69
2023/10/15 07:28:36;;;;;;;5.27;2.33;;;;;;;9.50;97.62;98680.69;4915722;29;20040;-66
2023/10/15 07:31:02;;;;;;;5.07;2.73;;;;;;;9.56;97.37;98672.72;4917497;29;20107;-68
2023/10/15 07:33:28;;;;;;;4.77;2.33;;;;;;;9.66;96.61;98679.44;4920508;29;20035;-68
2023/10/15 07:35:53;;;;;;;5.70;1.90;;;;;;;9.60;97.25;98676.59;4919804;29;20448;-66
2023/10/15 07:38:19;;;;;;;4.10;2.00;;;;;;;9.75;96.29;98691.50;4919785;29;20040;-66
2023/10/15 07:40:44;;;;;;;5.60;2.47;;;;;;;9.82;96.67;98679.81;4918049;29;20135;-67
2023/10/15 07:43:11;;;;;;;6.53;2.00;;;;;;;9.48;95.50;98622.44;4920911;29;20043;-71
2023/10/15 07:45:38;;;;;;;6.27;2.20;;;;;;;9.79;94.72;98668.78;4920379;29;20087;-68
2023/10/15 07:48:09;;;;;;;9.03;2.43;;;;;;;9.69;96.56;98671.06;4921746;29;20063;-69
2023/10/15 07:50:35;;;;;;;5.10;1.83;;;;;;;9.69;95.52;98681.69;4921728;29;20067;-69
2023/10/15 07:53:02;;;;;;;7.87;2.10;;;;;;;9.86;95.92;98706.81;4919346;29;20051;-69
2023/10/15 07:55:28;;;;;;;7.17;2.87;;;;;;;9.82;94.59;98673.69;4919422;29;20096;-67
2023/10/15 07:57:53;;;;;;;6.73;1.97;;;;;;;9.88;94.80;98678.19;4918801;29;20036;-66
2023/10/15 08:00:26;;;;;;;7.70;2.50;;;;;;;9.71;94.78;98653.06;4918762;29;20048;-68
2023/10/15 08:02:52;;;;;;;6.20;2.30;;;;;;;9.37;95.27;98596.53;4901868;29;20044;-70
2023/10/15 08:05:21;;;;;;;13.17;3.47;;;;;;;9.80;95.63;98660.59;4918889;29;20040;-67
2023/10/15 08:07:51;;;;;;;5.53;1.80;;;;;;;9.97;96.00;98682.25;4917572;29;20040;-67
2023/10/15 08:10:17;;;;;;;10.23;3.37;;;;;;;10.03;95.79;98669.94;4902343;29;20047;-66
2023/10/15 08:12:44;;;;;;;5.88;1.95;;;;;;;9.97;95.00;98660.97;4918851;29;20035;-66
2023/10/15 08:15:11;;;;;;;7.63;2.93;;;;;;;10.07;95.18;98682.59;4918610;29;20063;-66
2023/10/15 08:17:36;;;;;;;7.50;2.70;;;;;;;10.14;94.70;98683.44;4918675;29;20031;-66
2023/10/15 08:20:04;;;;;;;7.07;3.33;;;;;;;10.07;94.44;98661.34;4918404;29;20038;-68
2023/10/15 08:22:30;;;;;;;5.72;3.28;;;;;;;10.08;93.69;98667.47;4918826;29;20039;-71
2023/10/15 08:24:56;;;;;;;7.13;2.47;;;;;;;9.98;93.68;98657.28;4919752;29;20127;-70
2023/10/15 08:27:22;;;;;;;8.23;2.37;;;;;;;10.19;92.93;98677.47;4921475;29;20073;-69
2023/10/15 08:29:47;;;;;;;6.47;2.50;;;;;;;10.24;93.08;98667.84;4920375;29;20120;-67
2023/10/15 08:32:20;;;;;;;10.53;4.77;;;;;;;10.23;92.67;98678.72;4918911;29;20035;-69
2023/10/15 08:34:47;;;;;;;3.53;2.10;;;;;;;10.24;91.86;98683.81;4918291;29;20040;-68
2023/10/15 08:37:16;;;;;;;6.87;2.83;;;;;;;10.18;90.99;98673.19;4917787;29;20519;-68
2023/10/15 08:39:44;;;;;;;8.10;2.50;;;;;;;10.16;90.56;98683.22;4917900;29;20462;-65
2023/10/15 08:42:14;;;;;;;9.43;2.23;;;;;;;10.06;91.84;98651.72;4917662;29;20048;-67
2023/10/15 08:44:41;;;;;;;7.80;2.30;;;;;;;9.99;92.19;98658.09;4915822;29;20036;-71
2023/10/15 08:47:09;;;;;;;5.00;2.33;;;;;;;9.83;92.70;98648.72;4918010;29;20035;-71
2023/10/15 08:49:39;;;;;;;5.03;2.30;;;;;;;9.91;92.55;98667.13;4917954;29;20041;-72
2023/10/15 08:52:06;;;;;;;6.07;2.40;;;;;;;9.85;90.59;98654.69;4918287;29;20044;-70
2023/10/15 08:54:38;;;;;;;3.63;2.20;;;;;;;9.81;91.30;98666.72;4918192;29;20496;-73
2023/10/15 08:57:08;;;;;;;5.63;2.90;;;;;;;9.67;92.27;98638.56;4919369;29;20040;-70
2023/10/15 08:59:36;;;;;;;9.57;2.93;;;;;;;9.80;91.57;98662.44;4919982;29;20126;-72
2023/10/15 09:02:08;;;;;;;4.70;1.93;;;;;;;9.71;91.81;98655.72;4917827;29;20091;-72
2023/10/15 09:04:34;;;;;;;7.93;1.93;;;;;;;9.83;90.44;98660.22;4926998;29;20039;-68
2023/10/15 09:07:03;;;;;;;9.03;2.20;;;;;;;9.65;91.11;98622.81;4922554;29;20107;-66
2023/10/15 09:09:30;;;;;;;9.13;2.03;;;;;;;9.84;91.37;98655.69;4921794;29;20047;-67
2023/10/15 09:11:56;;;;;;;4.30;2.43;;;;;;;9.80;90.29;98659.78;4918134;29;20046;-65
2023/10/15 09:14:38;;;;;;;4.93;1.80;;;;;;;9.87;92.80;98660.59;4917746;29;20040;-67
2023/10/15 09:17:03;;;;;;;8.27;2.50;;;;;;;9.73;94.28;98658.97;4917796;29;20047;-67
2023/10/15 09:19:31;;;;;;;6.57;2.47;;;;;;;9.75;94.47;98654.28;4917305;29;20035;-64
2023/10/15 09:22:14;;;;;;;4.13;2.30;;;;;;;9.64;95.95;98645.13;4912528;29;20510;-71
2023/10/15 09:24:44;;;;;;;9.00;2.23;;;;;;;9.70;99.39;98672.69;4914990;29;20058;-65
2023/10/15 09:27:11;;;;;;;6.00;2.60;;;;;;;9.62;97.69;98666.59;4909390;29;20424;-65
2023/10/15 09:29:37;;;;;;;9.30;2.27;;;;;;;9.72;97.15;98662.66;4905629;29;20071;-65
2023/10/15 09:32:05;;;;;;;8.93;2.67;;;;;;;9.75;95.92;98659.59;4909021;29;20110;-69
2023/10/15 09:34:33;;;;;;;8.37;2.40;;;;;;;9.66;98.22;98647.56;4911579;29;20056;-64
2023/10/15 09:36:59;;;;;;;5.60;2.67;;;;;;;9.89;97.97;98663.88;4906161;29;20055;-68
2023/10/15 09:39:30;;;;;;;4.47;1.97;;;;;;;9.92;98.15;98640.34;4913428;29;20045;-67
2023/10/15 09:42:05;;;;;;;8.03;2.53;;;;;;;10.06;95.55;98638.41;4909298;29;20079;-65
2023/10/15 09:44:35;;;;;;;7.20;2.40;;;;;;;10.03;94.72;98638.84;4896829;29;20392;-63
2023/10/15 09:47:08;;;;;;;8.03;2.63;;;;;;;10.13;94.23;98631.25;4898212;29;20032;-67
2023/10/15 09:49:34;;;;;;;7.73;1.93;;;;;;;10.29;92.26;98637.13;4900580;29;20040;-67
2023/10/15 09:52:02;;;;;;;4.90;1.90;;;;;;;10.14;91.43;98582.34;4911671;29;20102;-67
2023/10/15 09:54:30;;;;;;;5.22;2.15;;;;;;;10.55;90.26;98632.47;4917261;29;20044;-64
2023/10/15 09:56:56;;;;;;;8.05;2.65;;;;;;;10.81;88.94;98639.47;4917166;29;20124;-65
2023/10/15 09:59:22;;;;;;;4.83;2.17;;;;;;;10.75;86.09;98648.34;4917869;29;20083;-68
2023/10/15 10:01:54;;;;;;;4.53;1.83;;;;;;;10.44;86.94;98608.41;4917250;29;20489;-64
2023/10/15 10:04:23;;;;;;;4.87;1.97;;;;;;;10.52;86.50;98632.09;4917347;29;20095;-66
2023/10/15 10:07:05;;;;;;;8.27;2.37;;;;;;;10.55;85.48;98627.16;4917506;29;20052;-66
2023/10/15 10:09:58;;;;;;;6.27;1.90;;;;;;;10.60;85.65;98629.19;4915829;29;20036;-66
2023/10/15 10:13:01;;;;;;;5.77;2.20;;;;;;;10.57;86.66;98631.44;4899918;29;20036;-66
2023/10/15 10:15:38;;;;;;;4.93;1.77;;;;;;;10.51;87.54;98612.66;4916391;29;20087;-65
2023/10/15 10:18:33;;;;;;;3.70;2.10;;;;;;;10.58;85.93;98617.94;4915081;29;20039;-66
2023/10/15 10:21:12;;;;;;;6.17;1.70;;;;;;;10.03;85.83;98543.13;4915975;29;20416;-65
2023/10/15 10:23:39;;;;;;;9.80;2.67;;;;;;;10.57;85.68;98599.50;4916025;29;20051;-64
2023/10/15 10:26:12;;;;;;;7.13;2.20;;;;;;;10.65;84.62;98592.06;4914856;29;20134;-66
2023/10/15 10:28:39;;;;;;;5.07;1.93;;;;;;;10.59;83.89;98594.78;4915767;29;20044;-65
2023/10/15 10:31:07;;;;;;;5.93;1.97;;;;;;;10.62;83.32;98576.53;4914631;29;20444;-65
2023/10/15 10:33:44;;;;;;;5.43;1.50;;;;;;;10.88;82.80;98596.81;4916196;29;20504;-65
2023/10/15 10:36:30;;;;;;;4.93;1.73;;;;;;;10.90;81.63;98601.94;4916147;29;20046;-65
2023/10/15 10:39:10;;;;;;;5.03;2.00;;;;;;;10.80;81.16;98603.25;4916217;29;20488;-66
2023/10/15 10:41:38;;;;;;;6.10;2.00;;;;;;;10.64;81.54;98581.66;4914833;29;20051;-65
2023/10/15 10:44:23;;;;;;;5.40;2.15;;;;;;;10.51;81.39;98590.53;4915703;29;20143;-68
2023/10/15 10:46:56;;;;;;;3.33;1.90;;;;;;;10.42;81.45;98590.00;4915613;29;20079;-63
2023/10/15 10:49:30;;;;;;;4.03;1.70;;;;;;;10.62;82.41;98600.50;4915966;29;20048;-67
2023/10/15 10:52:17;;;;;;;3.07;1.87;;;;;;;10.63;81.97;98586.16;4915791;29;20154;-64
2023/10/15 10:54:46;;;;;;;6.90;1.93;;;;;;;10.78;82.53;98593.84;4915528;29;20056;-65
2023/10/15 10:57:11;;;;;;;;;;;;;;;10.72;81.70;98598.19;4914949;29;20040;-65
2023/10/15 10:59:43;;;;;;;8.27;2.87;;;;;;;10.66;81.77;98579.56;4914610;29;19926;-65
2023/10/15 11:02:11;;;;;;;3.63;1.87;;;;;;;10.66;81.70;98584.91;4914356;29;20051;-64
2023/10/15 11:04:39;;;;;;;5.50;1.92;;;;;;;10.82;81.54;98608.34;4916188;29;20043;-66
2023/10/15 11:07:04;;;;;;;5.03;1.90;;;;;;;10.74;81.55;98593.47;4915742;29;20068;-64
2023/10/15 11:09:30;;;;;;;5.00;1.53;;;;;;;10.82;81.19;98614.50;4916272;29;20087;-65
2023/10/15 11:11:57;;;;;;;6.07;2.57;;;;;;;10.59;82.81;98582.28;4919311;29;20106;-66
2023/10/15 11:14:29;;;;;;;4.00;2.10;;;;;;;10.80;83.30;98624.53;4917128;29;20079;-64
2023/10/15 11:16:56;;;;;;;2.83;1.57;;;;;;;10.77;82.22;98619.66;4915891;29;20420;-68
2023/10/15 11:19:30;;;;;;;5.90;2.07;;;;;;;10.72;83.16;98629.31;4915575;29;20040;-64
2023/10/15 11:21:57;;;;;;;5.53;1.50;;;;;;;10.65;83.89;98620.53;4915738;29;20135;-65
2023/10/15 11:24:24;;;;;;;2.63;1.40;;;;;;;10.56;83.76;98601.38;4915497;29;20037;-66
2023/10/15 11:26:51;;;;;;;2.67;1.20;;;;;;;10.46;83.83;98603.69;4914308;29;20070;-64
2023/10/15 11:29:20;;;;;;;2.10;1.50;;;;;;;10.54;84.01;98614.06;4915336;29;20036;-65
2023/10/15 11:31:57;;;;;;;2.57;1.40;;;;;;;10.68;84.26;98636.09;4915077;29;20068;-66
2023/10/15 11:34:24;;;;;;;4.20;1.87;;;;;;;10.67;85.24;98619.28;4913940;29;20092;-65
2023/10/15 11:36:55;;;;;;;3.42;1.75;;;;;;;10.72;84.19;98630.13;4914185;29;20048;-67
2023/10/15 11:42:09;;;;;;;2.30;1.20;;;;;;;10.71;86.02;98636.50;4914118;29;20068;-65
2023/10/15 11:44:44;;;;;;;4.83;1.50;;;;;;;10.65;86.86;98653.31;4914273;29;20047;-67
2023/10/15 11:47:16;;;;;;;3.23;1.90;;;;;;;10.53;87.50;98642.53;4914343;29;20051;-64
2023/10/15 11:49:42;;;;;;;3.70;1.90;;;;;;;10.30;88.81;98634.25;4897069;29;20032;-64
2023/10/15 11:52:12;;;;;;;4.53;1.60;;;;;;;10.17;90.03;98626.31;4914279;29;20048;-68
2023/10/15 11:54:43;;;;;;;4.53;1.70;;;;;;;10.07;91.17;98634.72;4918142;29;20044;-66
2023/10/15 11:57:16;;;;;;;2.53;1.47;;;;;;;10.07;92.15;98633.91;4916759;29;20103;-65
2023/10/15 11:59:45;;;;;;;5.83;1.80;;;;;;;10.07;92.01;98640.06;4915491;29;20110;-66
2023/10/15 12:02:11;;;;;;;3.90;1.63;;;;;;;10.03;93.11;98638.84;4914069;29;20052;-65
2023/10/15 12:04:41;;;;;;;5.83;1.90;;;;;;;9.86;93.53;98627.06;4912824;29;20051;-65